METAR Data
IDs: Format: Raw Decoded Include TAF

Data at: 1548 UTC 18 Aug 2019

PAPB 181453Z AUTO 05008KT 10SM CLR 11/11 A3030 RMK AO2 SLP246 T01110106 58012 TSNO $
PAPB 181408Z AUTO 05009KT 10SM SCT005 12/11 A3031 RMK AO2 T01170106 TSNO $
PAPB 181353Z AUTO 05010KT 10SM BKN005 12/11 A3031 RMK AO2 SLP251 T01170106 TSNO $
PAPB 181320Z AUTO 05007KT 10SM OVC004 12/11 A3033 RMK AO2 T01170111 TSNO $
PAPB 181253Z AUTO 05010KT 10SM OVC005 12/11 A3033 RMK AO2 SLP257 T01170111 TSNO $
PAPB 181153Z AUTO 05015KT 10SM BKN007 12/11 A3033 RMK AO2 SLP258 60000 T01170106 10117 20106 56019 TSNO $
PAPB 181108Z AUTO 05013KT 10SM OVC006 12/11 A3034 RMK AO2 CIG 002V009 T01170106 TSNO $
PAPB 181053Z AUTO 06013G21KT 10SM BKN004 OVC008 12/11 A3035 RMK AO2 RAE47 CIG 002V006 SLP264 P0000 T01170111 TSNO $
PAPB 181034Z AUTO 05015G22KT 4SM -RA BR OVC003 12/11 A3035 RMK AO2 P0000 T01170111 TSNO $
PAPB 180953Z AUTO 05013KT 2SM -RA BR OVC003 12/11 A3037 RMK AO2 RAE32B34 SLP270 P0000 T01170111 TSNO $
PAPB 180937Z AUTO 05015KT 1 3/4SM -RA BR OVC003 11/11 A3037 RMK AO2 RAE32B34 P0000 T01110106 TSNO $
PAPB 180932Z AUTO 05015KT 3SM BR OVC003 11/11 A3037 RMK AO2 RAE32 P0000 T01110106 TSNO $
PAPB 180853Z AUTO 05012KT 1 1/2SM -RA BR OVC003 11/11 A3039 RMK AO2 SLP277 P0000 60000 T01110106 401610083 56007 TSNO $
PAPB 180826Z AUTO 05015KT 1 3/4SM -RA BR OVC002 11/11 A3039 RMK AO2 P0000 T01110106 TSNO $
PAPB 180808Z AUTO 05016KT 4SM -RA BR OVC002 11/11 A3039 RMK AO2 P0000 T01110106 TSNO $
PAPB 180753Z AUTO 05013KT 2SM -RA BR OVC002 11/11 A3039 RMK AO2 RAB0655E30B51 SLP279 P0000 T01110106 TSNO $
PAPB 180705Z AUTO 05015KT 3SM -RA BR OVC002 11/10 A3039 RMK AO2 RAB0655 P0000 T01060100 TSNO $
PAPB 180653Z AUTO 05017G22KT 1 3/4SM BR OVC002 11/10 A3040 RMK AO2 SLP280 T01110100 TSNO $
PAPB 180641Z AUTO 05014KT 2SM BR OVC002 11/10 A3040 RMK AO2 T01110100 TSNO $
PAPB 180627Z AUTO 05018KT 4SM BR OVC002 11/10 A3040 RMK AO2 T01060100 TSNO $
PAPB 180615Z AUTO 05013KT 2SM BR OVC002 11/11 A3040 RMK AO2 T01110106 TSNO $
PAPB 180553Z AUTO 04011G20KT 1 1/2SM BR OVC002 11/11 A3041 RMK AO2 SLP284 T01110106 10139 20111 55004 TSNO $
PAPB 180549Z AUTO 04016KT 1 1/4SM BR OVC002 11/11 A3041 RMK AO2 TSNO $
PAPB 180537Z AUTO 04015KT 2 1/2SM BR OVC002 11/11 A3041 RMK AO2 T01110106 TSNO $
PAPB 180523Z AUTO 04014KT 3SM BR OVC002 11/11 A3041 RMK AO2 T01110106 TSNO $
PAPB 180508Z AUTO 05014KT 1 3/4SM BR OVC002 11/10 A3041 RMK AO2 VIS 1V5 T01110100 TSNO $
PAPB 180453Z AUTO 04013KT 7SM OVC002 11/10 A3042 RMK AO2 SLP288 T01110100 TSNO $
PAPB 180353Z AUTO 05012KT 9SM OVC003 12/11 A3042 RMK AO2 SLP289 T01170106 TSNO $
PAPB 180322Z AUTO 06015KT 9SM OVC003 12/11 A3043 RMK AO2 T01170106 TSNO $
PAPB 180253Z AUTO 06013KT 10SM OVC004 12/10 A3043 RMK AO2 SLP293 T01170100 58006 TSNO $
PAPB 180153Z AUTO 07013KT 10SM OVC004 13/11 A3044 RMK AO2 SLP295 T01280106 TSNO $
PAPB 180053Z AUTO 06015KT 10SM BKN004 13/11 A3045 RMK AO2 SLP299 T01330111 TSNO $
PAPB 180041Z AUTO 06014KT 10SM OVC004 13/11 A3046 RMK AO2 T01330111 TSNO $
PAPB 180007Z AUTO 06013KT 10SM BKN005 14/11 A3046 RMK AO2 T01390111 TSNO $
PAPB 172353Z AUTO 05015KT 10SM SCT006 13/11 A3045 RMK AO2 SLP300 T01330111 10161 20133 58010 TSNO $
PAPB 172302Z AUTO 06013KT 10SM FEW007 14/12 A3047 RMK AO2 T01440117 TSNO $
PAPB 172253Z AUTO 06012KT 10SM CLR 14/12 A3047 RMK AO2 SLP304 T01440117 TSNO $
PAPB 172201Z AUTO 07015KT 10SM FEW009 15/12 A3048 RMK AO2 T01500117 TSNO $
PAPB 172153Z AUTO 08013KT 10SM CLR 15/12 A3048 RMK AO2 SLP308 T01500117 TSNO $
PAPB 172053Z AUTO 09013KT 10SM CLR 16/11 A3048 RMK AO2 SLP310 T01610106 55000 TSNO $
PAPB 171953Z AUTO 09012KT 10SM CLR 16/11 A3047 RMK AO2 SLP306 T01560106 TSNO $
PAPB 171853Z AUTO 07011KT 10SM CLR 14/10 A3048 RMK AO2 SLP307 T01440100 TSNO $
PAPB 171753Z AUTO 11012KT 10SM CLR 13/09 A3048 RMK AO2 SLP310 60000 T01330094 10133 20094 TSNO $
PAPB 171653Z AUTO 10007KT 10SM CLR 12/09 A3050 RMK AO2 SLP314 T01170094 TSNO $
PAPB 171553Z AUTO 08009KT 10SM 11/09 A3050 RMK AO2 RAB1456E05 SLP317 P0000 T01060094 TSNO $
PAPB 171453Z AUTO 09008KT 8SM CLR 10/09 A3051 RMK AO2 SLP318 60000 T01000094 56008 TSNO
PAPB 171409Z AUTO 09007KT 4SM BR SCT001 10/09 A3052 RMK AO2 T01000094 TSNO
PAPB 171405Z AUTO 09007KT 1 1/4SM BR BKN001 11/09 A3051 RMK AO2 T01060094 TSNO
PAPB 171357Z AUTO 09007KT 3/4SM BR VV001 11/09 A3052 RMK AO2 T01060094 TSNO
PAPB 171353Z AUTO 09007KT 1 1/2SM BR BKN002 10/09 A3052 RMK AO2 SLP321 T01000094 TSNO
PAPB 171332Z AUTO 11006KT 6SM BR SCT002 11/10 A3052 RMK AO2 T01060100 TSNO
PAPB 171322Z AUTO 10006KT 7SM BKN002 11/10 A3052 RMK AO2 T01060100 TSNO
PAPB 171314Z AUTO 11007KT 2SM BR OVC002 11/11 A3052 RMK AO2 T01110106 TSNO
PAPB 171307Z AUTO 11007KT 1SM BR VV002 11/11 A3052 RMK AO2 T01110106 TSNO
PAPB 171253Z AUTO 11007KT 3/4SM BR VV002 12/11 A3052 RMK AO2 RAE02B42E53 SLP322 P0000 T01170111 TSNO
PAPB 171248Z AUTO 11007KT 3/4SM -RA BR VV002 12/11 A3052 RMK AO2 RAE02B42 P0000 TSNO
PAPB 171241Z AUTO 10005KT 1 3/4SM BR OVC002 11/11 A3052 RMK AO2 VIS 3/4V4 RAE02 P0000 T01110106 TSNO
PAPB 171232Z AUTO 09006KT 5SM BR BKN001 11/10 A3053 RMK AO2 RAE02 P0000 T01060100 TSNO
PAPB 171220Z AUTO 10007KT 7SM SCT001 10/09 A3053 RMK AO2 RAE02 P0000 T01000094 TSNO
PAPB 171153Z AUTO 09007KT 10SM -RA CLR 10/09 A3053 RMK AO2 RAB53 SLP326 P0000 60000 T01000089 10122 20083 50002 TSNO
PAPB 171053Z AUTO 00000KT 10SM CLR 09/08 A3053 RMK AO2 SLP327 T00890083 TSNO
PAPB 170953Z AUTO 00000KT 10SM CLR 09/08 A3053 RMK AO2 SLP325 T00890083 TSNO
PAPB 170853Z AUTO 15005KT 10SM CLR 11/09 A3052 RMK AO2 RAB26E40 SLP323 P0000 60000 T01060094 401560094 51004 TSNO
PAPB 170753Z AUTO 13005KT 9SM CLR 09/08 A3052 RMK AO2 SLP323 T00940083 TSNO
PAPB 170653Z AUTO 00000KT 9SM CLR 11/10 A3051 RMK AO2 SLP320 T01060100 TSNO
PAPB 170553Z AUTO 16007KT 10SM CLR 12/11 A3051 RMK AO2 SLP319 T01220106 10156 20122 57003 TSNO
PAPB 170453Z AUTO 17008KT 10SM CLR 15/09 A3051 RMK AO2 SLP320 T01500094 TSNO
PAPB 170353Z AUTO 16008KT 10SM CLR 16/11 A3052 RMK AO2 SLP320 T01560106 TSNO